Time;durP1;ratioP1;P1;durP2;ratioP2;P2;SDS_P1;SDS_P2;PMS_P1;PMS_P2;Temp;Humidity;BMP_temperature;BMP_pressure;BME280_temperature;BME280_humidity;BME280_pressure;Samples;Min_cycle;Max_cycle;Signal;HPM_P1;HPM_P2
2021/07/05 00:02:14;;;;;;;19.73;8.18;;;;;;;14.48;100.00;100759.16;5076324;28;20115;-65
2021/07/05 00:04:39;;;;;;;21.88;8.45;;;;;;;14.39;100.00;100756.63;5078197;28;20040;-66
2021/07/05 00:07:05;;;;;;;20.80;8.02;;;;;;;14.39;100.00;100756.63;5078195;28;20027;-69
2021/07/05 00:09:31;;;;;;;20.70;8.43;;;;;;;14.39;100.00;100761.94;5077951;28;20020;-67
2021/07/05 00:11:57;;;;;;;21.17;8.40;;;;;;;14.35;100.00;100754.88;5077718;28;20020;-65
2021/07/05 00:14:23;;;;;;;20.38;8.50;;;;;;;14.36;100.00;100756.63;5078334;28;20035;-69
2021/07/05 00:16:49;;;;;;;20.60;8.60;;;;;;;14.22;100.00;100765.66;5078576;28;20429;-70
2021/07/05 00:19:14;;;;;;;20.88;8.63;;;;;;;14.16;100.00;100760.44;5077828;28;20382;-65
2021/07/05 00:21:40;;;;;;;22.55;9.00;;;;;;;14.17;100.00;100761.28;5078251;28;20025;-67
2021/07/05 00:24:06;;;;;;;22.23;9.23;;;;;;;14.17;100.00;100766.59;5077965;28;20027;-66
2021/07/05 00:26:31;;;;;;;20.58;8.88;;;;;;;14.15;100.00;100765.75;5078288;28;20025;-61
2021/07/05 00:28:57;;;;;;;21.23;8.93;;;;;;;14.11;100.00;100760.47;5077952;28;20025;-61
2021/07/05 00:31:22;;;;;;;21.42;9.10;;;;;;;14.07;100.00;100760.53;5077883;28;20033;-61
2021/07/05 00:33:48;;;;;;;21.45;8.95;;;;;;;14.04;100.00;100756.13;5077832;28;20520;-67
2021/07/05 00:36:13;;;;;;;21.08;9.18;;;;;;;14.03;100.00;100745.53;5077724;28;20078;-68
2021/07/05 00:38:38;;;;;;;21.85;8.82;;;;;;;14.02;100.00;100746.41;5077817;28;20107;-61
2021/07/05 00:41:04;;;;;;;22.85;8.70;;;;;;;13.93;100.00;100737.63;5077530;28;20074;-61
2021/07/05 00:43:30;;;;;;;20.63;8.90;;;;;;;13.92;100.00;100740.31;5078371;28;20420;-69
2021/07/05 00:45:56;;;;;;;21.77;8.88;;;;;;;13.90;100.00;100740.31;5078093;28;20416;-69
2021/07/05 00:48:21;;;;;;;21.65;8.70;;;;;;;13.83;100.00;100735.09;5077494;28;20051;-67
2021/07/05 00:50:47;;;;;;;21.77;8.70;;;;;;;13.75;100.00;100740.50;5077771;28;20074;-61
2021/07/05 00:53:12;;;;;;;21.55;9.00;;;;;;;13.75;100.00;100740.50;5078103;28;20090;-68
2021/07/05 00:55:38;;;;;;;20.67;9.40;;;;;;;13.72;100.00;100738.75;5077705;28;20459;-64
2021/07/05 00:58:03;;;;;;;23.08;10.77;;;;;;;13.75;100.00;100745.81;5074630;28;20048;-70
2021/07/05 01:00:29;;;;;;;22.20;10.80;;;;;;;13.77;100.00;100747.56;5073746;28;20025;-61
2021/07/05 01:02:55;;;;;;;23.27;10.90;;;;;;;13.69;100.00;100751.19;5074387;28;20037;-62
2021/07/05 01:05:22;;;;;;;23.40;10.93;;;;;;;13.75;100.00;100751.13;5074681;28;20433;-61
2021/07/05 01:07:48;;;;;;;23.23;10.50;;;;;;;13.69;100.00;100753.84;5074745;28;20380;-68
2021/07/05 01:10:16;;;;;;;22.52;10.40;;;;;;;13.67;100.00;100756.50;5070899;28;20103;-61
2021/07/05 01:12:43;;;;;;;21.23;9.48;;;;;;;13.73;100.00;100752.91;5074294;28;20036;-63
2021/07/05 01:15:11;;;;;;;21.20;9.70;;;;;;;13.70;100.00;100756.50;5074136;28;20029;-61
2021/07/05 01:17:37;;;;;;;22.30;9.98;;;;;;;13.79;100.00;100760.84;5074555;28;20032;-63
2021/07/05 01:20:04;;;;;;;22.30;9.18;;;;;;;13.81;100.00;100759.03;5074441;28;20090;-66
2021/07/05 01:22:30;;;;;;;22.65;9.27;;;;;;;13.85;100.00;100755.47;5073988;28;20455;-68
2021/07/05 01:24:55;;;;;;;21.60;9.15;;;;;;;13.89;100.00;100754.53;5074605;28;20025;-62
2021/07/05 01:27:23;;;;;;;21.60;9.05;;;;;;;13.98;100.00;100757.97;5074280;28;20075;-65
2021/07/05 01:29:48;;;;;;;20.70;8.57;;;;;;;14.05;100.00;100754.34;5071198;28;20054;-69
2021/07/05 01:32:13;;;;;;;21.20;9.07;;;;;;;14.09;100.00;100748.09;5074295;28;20539;-71
2021/07/05 01:34:39;;;;;;;21.65;9.32;;;;;;;14.14;100.00;100754.25;5073935;28;20040;-62
2021/07/05 01:37:07;;;;;;;24.50;9.10;;;;;;;14.16;100.00;100747.13;5073697;28;20024;-61
2021/07/05 01:39:32;;;;;;;21.38;8.85;;;;;;;14.19;100.00;100755.06;5073668;28;20031;-71
2021/07/05 01:41:57;;;;;;;23.05;9.50;;;;;;;14.21;100.00;100763.03;5073876;28;20456;-68
2021/07/05 01:44:23;;;;;;;23.45;9.02;;;;;;;14.25;100.00;100768.28;5073721;28;20089;-63
2021/07/05 01:46:48;;;;;;;21.67;8.73;;;;;;;14.23;100.00;100761.25;5072091;28;20025;-61
2021/07/05 01:49:13;;;;;;;23.05;9.85;;;;;;;14.25;100.00;100770.06;5073054;28;20107;-61
2021/07/05 01:51:39;;;;;;;24.08;11.05;;;;;;;14.25;100.00;100768.28;5073983;28;20028;-64
2021/07/05 01:54:05;;;;;;;22.70;10.88;;;;;;;14.29;100.00;100762.03;5073747;28;20096;-71
2021/07/05 01:56:31;;;;;;;24.23;11.88;;;;;;;14.30;100.00;100769.13;5073445;28;20039;-72
2021/07/05 01:58:57;;;;;;;23.40;11.23;;;;;;;14.34;100.00;100767.28;5073148;28;20020;-69
2021/07/05 02:01:23;;;;;;;24.70;13.25;;;;;;;14.35;100.00;100768.19;5072982;28;20154;-66
2021/07/05 02:03:48;;;;;;;26.50;13.95;;;;;;;14.36;100.00;100762.84;5073364;28;20120;-70
2021/07/05 02:06:13;;;;;;;25.73;13.95;;;;;;;14.36;100.00;100762.84;5073614;28;20468;-69
2021/07/05 02:08:39;;;;;;;25.27;13.38;;;;;;;14.38;100.00;100762.81;5073453;28;20119;-66
2021/07/05 02:11:04;;;;;;;26.33;13.25;;;;;;;14.37;100.00;100759.28;5072691;28;20032;-66
2021/07/05 02:13:32;;;;;;;25.80;13.27;;;;;;;14.36;100.00;100768.16;5073248;28;20349;-65
2021/07/05 02:15:59;;;;;;;27.10;13.75;;;;;;;14.32;100.00;100763.78;5073273;28;20020;-71
2021/07/05 02:18:26;;;;;;;26.38;14.38;;;;;;;14.31;100.00;100777.97;5073239;28;20031;-64
2021/07/05 02:20:54;;;;;;;28.20;14.38;;;;;;;14.25;100.00;100770.94;5072726;28;20443;-69
2021/07/05 02:23:20;;;;;;;26.15;12.77;;;;;;;14.17;100.00;100777.25;5072755;28;20040;-70
2021/07/05 02:25:46;;;;;;;26.50;11.68;;;;;;;13.92;100.00;100775.75;5072649;28;20032;-62
2021/07/05 02:28:21;;;;;;;24.48;9.90;;;;;;;13.72;100.00;100785.72;5072865;28;20029;-64
2021/07/05 02:30:49;;;;;;;22.70;9.07;;;;;;;13.53;100.00;100775.25;5072440;28;20029;-63
2021/07/05 02:33:20;;;;;;;24.30;9.10;;;;;;;13.29;100.00;100786.03;5072797;28;20024;-61
2021/07/05 02:35:45;;;;;;;23.83;8.25;;;;;;;13.09;100.00;100779.09;5072523;28;20070;-69
2021/07/05 02:38:12;;;;;;;25.08;9.65;;;;;;;13.16;100.00;100775.50;5072857;28;20060;-68
2021/07/05 02:40:41;;;;;;;24.85;9.80;;;;;;;13.08;100.00;100777.34;5072084;28;20034;-67
2021/07/05 02:43:06;;;;;;;25.42;9.20;;;;;;;12.95;100.00;100780.97;5072601;28;20481;-71
2021/07/05 02:45:34;;;;;;;23.60;9.52;;;;;;;12.98;100.00;100781.81;5072747;28;20032;-67
2021/07/05 02:48:03;;;;;;;24.77;9.93;;;;;;;12.79;100.00;100786.38;5072476;28;20082;-65
2021/07/05 02:50:29;;;;;;;27.67;10.68;;;;;;;12.78;100.00;100787.25;5072084;28;20032;-70
2021/07/05 02:52:55;;;;;;;27.80;11.10;;;;;;;12.77;100.00;100797.88;5072610;28;20027;-71
2021/07/05 02:55:21;;;;;;;30.90;12.30;;;;;;;12.82;100.00;100796.94;5072376;28;20032;-71
2021/07/05 02:57:48;;;;;;;29.92;12.45;;;;;;;12.75;100.00;100797.88;5072186;28;20031;-61
2021/07/05 03:00:24;;;;;;;30.20;12.23;;;;;;;12.73;100.00;100786.41;5071980;28;20353;-71
2021/07/05 03:02:49;;;;;;;28.88;12.10;;;;;;;12.72;100.00;100777.53;5069830;28;20034;-63
2021/07/05 03:05:16;;;;;;;31.13;13.25;;;;;;;12.75;100.00;100768.69;5072678;28;20025;-61
2021/07/05 03:07:42;;;;;;;31.63;13.68;;;;;;;12.90;100.00;100763.31;5072607;28;20387;-61
2021/07/05 03:10:09;;;;;;;34.05;14.57;;;;;;;12.84;100.00;100776.63;5072013;28;20035;-61
2021/07/05 03:12:35;;;;;;;33.10;13.25;;;;;;;12.97;100.00;100776.53;5072017;28;20451;-61
2021/07/05 03:15:02;;;;;;;30.15;13.38;;;;;;;12.84;100.00;100773.97;5072305;28;20056;-61
2021/07/05 03:17:28;;;;;;;30.73;12.82;;;;;;;12.76;100.00;100773.13;5072427;28;20032;-61
2021/07/05 03:19:54;;;;;;;33.53;13.35;;;;;;;12.77;100.00;100787.25;5071607;28;20527;-61
2021/07/05 03:22:19;;;;;;;30.40;12.63;;;;;;;12.67;100.00;100781.13;5071937;28;20384;-61
2021/07/05 03:24:45;;;;;;;36.58;13.75;;;;;;;12.68;100.00;100767.88;5071919;28;20107;-61
2021/07/05 03:27:12;;;;;;;31.08;13.25;;;;;;;12.58;100.00;100774.06;5072216;28;20016;-61
2021/07/05 03:29:38;;;;;;;34.58;13.07;;;;;;;12.63;100.00;100790.00;5071353;28;20021;-60
2021/07/05 03:32:05;;;;;;;35.50;13.75;;;;;;;12.61;100.00;100791.75;5072347;28;20081;-72
2021/07/05 03:34:30;;;;;;;32.53;13.77;;;;;;;12.64;100.00;100782.03;5072071;28;20107;-61
2021/07/05 03:36:55;;;;;;;36.95;14.98;;;;;;;12.76;100.00;100777.56;5071810;28;20452;-61
2021/07/05 03:39:21;;;;;;;35.85;14.13;;;;;;;12.67;100.00;100781.13;5071504;28;20130;-61
2021/07/05 03:41:47;;;;;;;38.42;15.30;;;;;;;12.71;100.00;100778.47;5071820;28;20070;-61
2021/07/05 03:44:12;;;;;;;38.13;15.32;;;;;;;12.69;100.00;100782.00;5071843;28;20115;-70
2021/07/05 03:46:37;;;;;;;35.17;15.20;;;;;;;12.60;100.00;100784.72;5072235;28;20116;-69
2021/07/05 03:49:04;;;;;;;38.47;15.10;;;;;;;12.58;100.00;100775.88;5071471;28;20112;-62
2021/07/05 03:51:30;;;;;;;34.33;14.77;;;;;;;12.53;100.00;100782.06;5070872;28;20029;-61
2021/07/05 03:53:56;;;;;;;36.90;15.10;;;;;;;12.54;100.00;100783.84;5071707;28;20479;-61
2021/07/05 03:56:21;;;;;;;38.75;15.38;;;;;;;12.53;100.00;100778.53;5071706;28;20065;-61
2021/07/05 03:58:47;;;;;;;38.63;15.63;;;;;;;12.54;100.00;100778.53;5072135;28;20103;-61
2021/07/05 04:01:12;;;;;;;39.65;15.93;;;;;;;12.58;100.00;100775.88;5070799;28;20150;-61
2021/07/05 04:03:37;;;;;;;37.08;15.63;;;;;;;12.49;100.00;100782.97;5071581;28;20113;-61
2021/07/05 04:06:03;;;;;;;38.60;15.90;;;;;;;12.48;100.00;100775.00;5071991;28;20032;-61
2021/07/05 04:08:30;;;;;;;39.58;15.98;;;;;;;12.51;100.00;100786.50;5071495;28;20158;-60
2021/07/05 04:10:56;;;;;;;37.45;15.45;;;;;;;12.47;100.00;100782.09;5071245;28;20112;-63
2021/07/05 04:13:22;;;;;;;39.95;16.15;;;;;;;12.46;100.00;100777.69;5071257;28;20032;-62
2021/07/05 04:15:51;;;;;;;40.00;17.67;;;;;;;12.45;100.00;100785.63;5071345;28;20467;-72
2021/07/05 04:18:16;;;;;;;42.42;17.30;;;;;;;12.45;100.00;100775.94;5071642;28;20483;-68
2021/07/05 04:20:42;;;;;;;42.45;17.30;;;;;;;12.47;100.00;100784.75;5071546;28;20115;-70
2021/07/05 04:23:07;;;;;;;43.53;18.05;;;;;;;12.52;100.00;100785.63;5071431;28;20353;-67
2021/07/05 04:25:33;;;;;;;43.50;17.85;;;;;;;12.47;100.00;100784.75;5071376;28;20016;-61
2021/07/05 04:27:58;;;;;;;41.20;17.63;;;;;;;12.51;100.00;100780.34;5071740;28;20033;-68
2021/07/05 04:30:24;;;;;;;43.42;17.85;;;;;;;12.53;100.00;100779.41;5071077;28;20045;-69
2021/07/05 04:32:49;;;;;;;43.35;18.50;;;;;;;12.58;100.00;100782.03;5072860;28;20439;-61
2021/07/05 04:35:17;;;;;;;45.90;18.35;;;;;;;12.59;100.00;100777.63;5075054;28;20364;-61
2021/07/05 04:37:44;;;;;;;42.58;17.25;;;;;;;12.53;100.00;100787.38;5074869;28;20467;-61
2021/07/05 04:40:13;;;;;;;40.63;17.40;;;;;;;12.51;100.00;100783.84;5074811;28;20527;-62
2021/07/05 04:42:40;;;;;;;45.13;17.48;;;;;;;12.51;100.00;100783.84;5074995;28;20028;-62
2021/07/05 04:45:08;;;;;;;40.30;16.45;;;;;;;12.53;100.00;100789.16;5074727;28;20031;-61
2021/07/05 04:47:33;;;;;;;39.67;17.10;;;;;;;12.60;100.00;100782.06;5074399;28;20487;-61
2021/07/05 04:49:59;;;;;;;42.75;16.80;;;;;;;12.60;100.00;100777.63;5074553;28;20025;-72
2021/07/05 04:52:24;;;;;;;38.72;15.70;;;;;;;12.58;100.00;100779.38;5074743;28;20093;-72
2021/07/05 04:54:50;;;;;;;37.80;15.05;;;;;;;12.59;100.00;100789.13;5074974;28;20090;-69
2021/07/05 04:57:16;;;;;;;38.20;14.95;;;;;;;12.60;100.00;100787.38;5074719;28;20025;-63
2021/07/05 04:59:41;;;;;;;35.22;14.55;;;;;;;12.59;100.00;100781.16;5073579;28;20056;-72
2021/07/05 05:02:06;;;;;;;35.75;14.38;;;;;;;12.56;100.00;100786.47;5074934;28;20028;-69
2021/07/05 05:04:32;;;;;;;36.33;14.48;;;;;;;12.60;100.00;100782.06;5074361;28;20054;-69
2021/07/05 05:06:57;;;;;;;36.55;15.13;;;;;;;12.61;100.00;100779.41;5074870;28;20028;-61
2021/07/05 05:09:24;;;;;;;34.47;14.05;;;;;;;12.60;100.00;100774.97;5074209;28;20027;-66
2021/07/05 05:11:52;;;;;;;36.35;14.85;;;;;;;12.62;100.00;100769.66;5074023;28;20056;-66
2021/07/05 05:14:18;;;;;;;35.50;13.73;;;;;;;12.64;100.00;100757.25;5074340;28;20024;-72
2021/07/05 05:16:44;;;;;;;36.17;14.32;;;;;;;12.65;100.00;100767.00;5074331;28;20028;-66
2021/07/05 05:19:10;;;;;;;36.00;14.02;;;;;;;12.66;100.00;100758.16;5073820;28;20032;-64
2021/07/05 05:21:35;;;;;;;33.83;13.98;;;;;;;12.66;100.00;100763.47;5074130;28;20033;-61
2021/07/05 05:24:01;;;;;;;34.15;14.05;;;;;;;12.69;100.00;100769.59;5074345;28;20036;-62
2021/07/05 05:26:27;;;;;;;32.90;14.32;;;;;;;12.73;100.00;100776.66;5074380;28;20025;-67
2021/07/05 05:28:53;;;;;;;34.38;13.98;;;;;;;12.83;100.00;100772.19;5074317;28;20383;-65
2021/07/05 05:31:19;;;;;;;33.88;13.80;;;;;;;12.87;100.00;100773.03;5073585;28;20112;-66
2021/07/05 05:33:44;;;;;;;31.95;13.73;;;;;;;12.85;100.00;100767.75;5073671;28;20090;-63
2021/07/05 05:36:10;;;;;;;31.48;13.88;;;;;;;12.91;100.00;100777.44;5074080;28;20021;-61
2021/07/05 05:38:36;;;;;;;33.00;13.45;;;;;;;12.94;100.00;100765.94;5074032;28;20471;-65
2021/07/05 05:41:01;;;;;;;32.53;13.45;;;;;;;12.97;100.00;100764.13;5072628;28;20498;-69
2021/07/05 05:43:27;;;;;;;33.60;13.27;;;;;;;12.95;100.00;100771.22;5073197;28;20039;-67
2021/07/05 05:45:52;;;;;;;30.88;12.88;;;;;;;12.94;100.00;100760.63;5073581;28;20020;-69
2021/07/05 05:48:17;;;;;;;34.95;14.10;;;;;;;13.04;100.00;100765.84;5073394;28;20032;-63
2021/07/05 05:50:43;;;;;;;33.13;13.55;;;;;;;13.03;100.00;100766.75;5073599;28;20107;-69
2021/07/05 05:53:08;;;;;;;33.78;13.35;;;;;;;13.04;100.00;100759.69;5072921;28;20104;-69
2021/07/05 05:55:34;;;;;;;34.05;13.73;;;;;;;13.06;100.00;100752.56;5073683;28;20020;-69
2021/07/05 05:57:59;;;;;;;33.75;14.55;;;;;;;13.18;100.00;100754.28;5073591;28;20034;-65
2021/07/05 06:00:28;;;;;;;33.50;13.30;;;;;;;13.18;100.00;100755.16;5072812;28;20016;-67
2021/07/05 06:02:54;;;;;;;34.63;14.60;;;;;;;13.26;100.00;100741.81;5071614;28;20359;-69
2021/07/05 06:05:21;;;;;;;34.22;14.95;;;;;;;13.35;100.00;100748.84;5073655;28;20484;-69
2021/07/05 06:07:49;;;;;;;32.05;13.50;;;;;;;13.31;100.00;100755.03;5073381;28;20119;-72
2021/07/05 06:10:15;;;;;;;32.47;13.20;;;;;;;13.29;100.00;100754.19;5072515;28;20078;-74
2021/07/05 06:12:41;;;;;;;32.50;12.55;;;;;;;13.33;100.00;100751.47;5073019;28;20116;-71
2021/07/05 06:15:08;;;;;;;30.55;12.63;;;;;;;13.26;100.00;100755.06;5073243;28;20100;-71
2021/07/05 06:17:34;;;;;;;31.88;13.07;;;;;;;13.31;100.00;100755.94;5073133;28;20029;-72
2021/07/05 06:19:59;;;;;;;30.13;12.23;;;;;;;13.35;100.00;100757.72;5072905;28;20027;-72
2021/07/05 06:22:28;;;;;;;29.38;12.50;;;;;;;13.36;100.00;100750.63;5072879;28;20036;-72
2021/07/05 06:24:54;;;;;;;31.58;12.18;;;;;;;13.43;100.00;100747.00;5071518;28;20039;-72
2021/07/05 06:27:19;;;;;;;29.20;12.23;;;;;;;13.48;100.00;100752.28;5072807;28;20036;-72
2021/07/05 06:29:45;;;;;;;29.85;11.15;;;;;;;13.48;100.00;100761.09;5072492;28;20054;-72
2021/07/05 06:32:11;;;;;;;28.02;11.43;;;;;;;13.58;100.00;100762.78;5072437;28;20456;-71
2021/07/05 06:34:36;;;;;;;31.58;12.13;;;;;;;13.63;100.00;100760.13;5072555;28;20048;-71
2021/07/05 06:37:02;;;;;;;28.58;10.75;;;;;;;13.71;100.00;100770.66;5072560;28;20034;-71
2021/07/05 06:39:27;;;;;;;26.80;10.65;;;;;;;13.68;100.00;100776.00;5072337;28;20313;-72
2021/07/05 06:41:52;;;;;;;30.23;10.90;;;;;;;13.65;100.00;100768.06;5072489;28;20072;-72
2021/07/05 06:44:18;;;;;;;26.85;10.57;;;;;;;13.69;100.00;100769.78;5072361;28;20032;-73
2021/07/05 06:46:44;;;;;;;27.88;10.48;;;;;;;13.67;100.00;100768.91;5072068;28;20438;-70
2021/07/05 06:49:14;;;;;;;27.15;10.57;;;;;;;13.70;100.00;100771.53;5072615;28;20024;-71
2021/07/05 06:51:40;;;;;;;28.55;11.43;;;;;;;13.77;100.00;100774.16;5069811;28;20024;-72
2021/07/05 06:54:05;;;;;;;29.38;10.57;;;;;;;13.75;100.00;100781.22;5072115;28;20471;-72
2021/07/05 06:56:30;;;;;;;26.42;10.38;;;;;;;13.77;100.00;100773.25;5071663;28;20364;-70
2021/07/05 06:58:56;;;;;;;27.75;10.90;;;;;;;13.87;100.00;100772.25;5072029;28;20403;-71
2021/07/05 07:01:21;;;;;;;25.95;10.15;;;;;;;13.86;100.00;100783.81;5071679;28;20068;-69
2021/07/05 07:03:46;;;;;;;28.20;10.60;;;;;;;13.82;100.00;100775.84;5072087;28;20124;-72
2021/07/05 07:06:15;;;;;;;30.20;12.15;;;;;;;13.89;100.00;100777.53;5071796;28;20047;-70
2021/07/05 07:08:40;;;;;;;26.40;10.23;;;;;;;13.92;100.00;100782.81;5072418;28;20373;-65
2021/07/05 07:11:05;;;;;;;25.20;10.13;;;;;;;13.84;100.00;100780.25;5070909;28;20070;-64
2021/07/05 07:13:31;;;;;;;26.10;10.40;;;;;;;13.90;100.00;100777.53;5071848;28;20031;-66
2021/07/05 07:15:57;;;;;;;29.52;10.95;;;;;;;13.93;100.00;100785.47;5072412;28;20013;-68
2021/07/05 07:20:58;;;;;;;28.02;10.52;;;;;;;13.99;100.00;100778.34;5067937;28;20021;-69
2021/07/05 07:23:24;;;;;;;26.77;11.02;;;;;;;14.03;100.00;100783.59;5071756;28;20056;-64
2021/07/05 07:25:49;;;;;;;27.65;10.80;;;;;;;14.01;100.00;100787.16;5071853;28;20031;-63
2021/07/05 07:28:15;;;;;;;28.42;11.48;;;;;;;14.09;100.00;100790.63;5071928;28;20027;-62
2021/07/05 07:30:40;;;;;;;29.70;12.23;;;;;;;14.20;100.00;100798.47;5071303;28;20056;-63
2021/07/05 07:33:06;;;;;;;28.88;11.02;;;;;;;14.22;100.00;100802.88;5071813;28;20044;-63
2021/07/05 07:35:32;;;;;;;27.63;11.20;;;;;;;14.22;100.00;100808.19;5070160;28;20056;-63
2021/07/05 07:37:57;;;;;;;28.42;10.75;;;;;;;14.32;100.00;100797.47;5071745;28;20039;-63
2021/07/05 07:40:42;;;;;;;29.80;11.07;;;;;;;14.35;100.00;100813.38;5071280;28;20029;-63
2021/07/05 07:43:07;;;;;;;28.98;11.15;;;;;;;14.37;100.00;100809.81;5072106;28;20032;-63
2021/07/05 07:45:33;;;;;;;25.25;11.18;;;;;;;14.34;100.00;100814.28;5071524;28;20088;-63
2021/07/05 07:47:58;;;;;;;29.13;11.52;;;;;;;14.36;100.00;100820.44;5071474;28;20075;-63
2021/07/05 07:50:24;;;;;;;26.75;11.43;;;;;;;14.47;100.00;100815.88;5071239;28;20108;-64
2021/07/05 07:52:50;;;;;;;28.55;11.25;;;;;;;14.49;100.00;100816.75;5071660;28;20387;-63
2021/07/05 07:55:17;;;;;;;26.67;10.88;;;;;;;14.60;100.00;100828.13;5072235;28;20021;-63
2021/07/05 07:57:43;;;;;;;27.45;10.85;;;;;;;14.58;100.00;100821.97;5071327;28;20033;-63
2021/07/05 08:00:11;;;;;;;28.92;11.30;;;;;;;14.52;100.00;100822.03;5070676;28;20485;-65
2021/07/05 08:02:37;;;;;;;27.45;11.15;;;;;;;14.49;100.00;100811.44;5071225;28;20111;-63
2021/07/05 08:05:04;;;;;;;28.58;11.27;;;;;;;14.59;100.00;100812.19;5071186;28;20435;-65
2021/07/05 08:07:29;;;;;;;27.27;11.23;;;;;;;14.72;100.00;100804.97;5073849;28;20040;-63
2021/07/05 08:09:58;;;;;;;29.25;12.02;;;;;;;14.86;100.00;100807.44;5074941;28;20025;-63
2021/07/05 08:12:23;;;;;;;29.08;11.18;;;;;;;14.98;100.00;100807.25;5075327;28;20025;-67
2021/07/05 08:14:49;;;;;;;29.90;11.45;;;;;;;15.09;100.00;100808.00;5075509;28;20384;-66
2021/07/05 08:17:14;;;;;;;27.90;10.70;;;;;;;15.13;100.00;100808.81;5075298;28;20418;-62
2021/07/05 08:19:40;;;;;;;26.35;11.38;;;;;;;15.28;100.00;100813.91;5073725;28;20040;-61
2021/07/05 08:22:05;;;;;;;27.10;11.68;;;;;;;15.50;100.00;100818.91;5075045;28;20025;-64
2021/07/05 08:24:30;;;;;;;27.65;11.68;;;;;;;15.56;100.00;100817.94;5075334;28;20047;-68
2021/07/05 08:26:56;;;;;;;26.50;10.82;;;;;;;15.54;100.00;100814.38;5075191;28;20024;-71
2021/07/05 08:29:21;;;;;;;26.67;10.90;;;;;;;15.50;100.00;100818.91;5073359;28;20035;-64
2021/07/05 08:31:47;;;;;;;27.30;11.63;;;;;;;15.46;100.00;100823.38;5074206;28;20029;-62
2021/07/05 08:34:12;;;;;;;27.02;11.00;;;;;;;15.38;100.00;100832.41;5074745;28;20074;-65
2021/07/05 08:36:40;;;;;;;25.90;11.50;;;;;;;15.26;100.00;100831.72;5075010;28;20431;-68
2021/07/05 08:39:06;;;;;;;28.65;11.00;;;;;;;15.20;100.00;100826.44;5074320;28;20062;-75
2021/07/05 08:41:32;;;;;;;26.95;11.52;;;;;;;15.23;100.00;100821.09;5074345;28;20111;-74
2021/07/05 08:43:58;;;;;;;26.10;11.43;;;;;;;15.26;100.00;100826.38;5075018;28;20557;-62
2021/07/05 08:46:24;;;;;;;27.98;11.40;;;;;;;15.30;100.00;100819.22;5074878;28;20021;-75
2021/07/05 08:48:50;;;;;;;26.80;11.38;;;;;;;15.48;100.00;100826.91;5073455;28;20138;-71
2021/07/05 08:51:19;;;;;;;28.02;11.10;;;;;;;15.61;100.00;100819.63;5074320;28;20039;-70
2021/07/05 08:53:46;;;;;;;24.63;10.77;;;;;;;15.69;100.00;100814.13;5074473;28;20052;-73
2021/07/05 08:56:11;;;;;;;24.25;10.48;;;;;;;15.89;100.00;100815.59;5074491;28;20024;-73
2021/07/05 08:58:39;;;;;;;25.27;10.30;;;;;;;16.05;100.00;100830.41;5074618;28;20119;-74
2021/07/05 09:01:06;;;;;;;27.98;10.30;;;;;;;16.22;100.00;100819.41;5074287;28;20024;-65
2021/07/05 09:03:32;;;;;;;25.60;10.05;;;;;;;16.43;100.00;100817.25;5073703;28;20140;-64
2021/07/05 09:06:18;;;;;;;24.75;9.63;;;;;;;16.58;100.00;100816.91;5074630;28;20111;-66
2021/07/05 09:09:04;;;;;;;25.83;9.40;;;;;;;16.38;97.64;100826.22;5074438;28;20095;-62
2021/07/05 09:11:48;;;;;;;24.05;8.90;;;;;;;16.39;100.00;100822.63;5010623;28;20057;-61
2021/07/05 09:14:23;;;;;;;23.60;8.70;;;;;;;16.44;98.03;100825.22;5012268;28;20088;-65
2021/07/05 09:16:51;;;;;;;23.92;8.35;;;;;;;16.25;97.85;100832.72;5012460;28;20057;-68
2021/07/05 09:19:23;;;;;;;24.33;8.45;;;;;;;16.20;96.72;100821.25;5011095;28;20025;-70
2021/07/05 09:21:54;;;;;;;23.50;8.15;;;;;;;16.18;96.70;100823.06;5011716;28;20030;-69
2021/07/05 09:24:35;;;;;;;23.80;8.20;;;;;;;16.17;98.11;100823.97;5009358;28;20033;-71
2021/07/05 09:27:08;;;;;;;22.15;7.97;;;;;;;16.16;100.00;100820.44;5012416;28;20087;-68
2021/07/05 09:29:34;;;;;;;24.35;8.45;;;;;;;16.23;100.00;100826.50;5012210;28;20056;-62
2021/07/05 09:32:03;;;;;;;24.77;8.35;;;;;;;16.30;100.00;100824.63;5011810;28;20389;-67
2021/07/05 09:34:37;;;;;;;23.30;8.98;;;;;;;16.36;100.00;100830.69;5011708;28;20030;-72
2021/07/05 09:37:22;;;;;;;23.70;8.60;;;;;;;16.01;100.00;100821.59;5011875;28;20080;-62
2021/07/05 09:40:11;;;;;;;23.30;8.23;;;;;;;15.74;100.00;100822.06;5011393;28;20029;-62
2021/07/05 09:42:48;;;;;;;23.70;8.98;;;;;;;15.37;100.00;100831.53;4954446;28;20051;-72
2021/07/05 09:45:22;;;;;;;25.33;10.07;;;;;;;15.12;100.00;100833.69;4956733;28;20043;-66
2021/07/05 09:48:11;;;;;;;25.20;9.07;;;;;;;14.99;100.00;100840.97;4962905;28;20085;-63
2021/07/05 09:50:37;;;;;;;26.80;10.90;;;;;;;14.91;100.00;100829.53;4990245;28;20085;-65
2021/07/05 09:53:25;;;;;;;27.48;12.05;;;;;;;14.95;100.00;100832.13;4992134;28;20425;-62
2021/07/05 09:55:51;;;;;;;28.77;12.23;;;;;;;15.03;100.00;100828.47;4993656;28;20483;-61
2021/07/05 09:58:30;;;;;;;30.17;11.10;;;;;;;14.98;100.00;100826.78;4993553;28;20486;-64
2021/07/05 10:00:55;;;;;;;25.90;11.18;;;;;;;14.88;100.00;100835.81;4991900;28;20513;-65
2021/07/05 10:03:34;;;;;;;28.85;12.50;;;;;;;14.85;100.00;100833.16;4975315;28;20050;-70
2021/07/05 10:06:14;;;;;;;28.60;13.20;;;;;;;14.70;100.00;100828.06;4991184;28;20040;-64
2021/07/05 10:08:40;;;;;;;27.67;12.90;;;;;;;14.55;100.00;100831.78;4989878;28;20026;-62
2021/07/05 10:11:06;;;;;;;25.45;11.07;;;;;;;14.42;100.00;100831.91;4991189;28;20031;-65
2021/07/05 10:13:32;;;;;;;27.45;13.50;;;;;;;14.54;100.00;100825.56;4991821;28;20034;-62
2021/07/05 10:16:07;;;;;;;33.85;17.05;;;;;;;14.70;100.00;100825.41;4991757;28;20560;-70
2021/07/05 10:18:33;;;;;;;32.33;16.85;;;;;;;14.80;100.00;100819.94;5000798;28;20038;-61
2021/07/05 10:20:59;;;;;;;32.72;19.85;;;;;;;15.06;100.00;100828.47;5069997;28;20024;-73
2021/07/05 10:23:24;;;;;;;22.95;10.68;;;;;;;14.98;100.00;100825.91;5072250;28;20039;-70
2021/07/05 10:25:50;;;;;;;23.45;11.75;;;;;;;14.94;100.00;100824.16;5072718;28;20016;-73
2021/07/05 10:28:17;;;;;;;24.42;12.48;;;;;;;15.02;100.00;100832.06;5071572;28;20028;-68
2021/07/05 10:30:45;;;;;;;22.38;10.68;;;;;;;14.94;100.00;100834.81;5071685;28;20024;-76
2021/07/05 10:33:10;;;;;;;22.92;10.50;;;;;;;14.99;100.00;100830.31;5073123;28;20379;-70
2021/07/05 10:35:39;;;;;;;23.85;11.05;;;;;;;15.13;100.00;100831.00;5070822;28;20032;-73
2021/07/05 10:38:12;;;;;;;21.80;9.32;;;;;;;15.38;100.00;100829.75;5072241;28;20044;-67
2021/07/05 10:40:41;;;;;;;22.23;9.70;;;;;;;15.68;100.00;100823.03;5072551;28;20032;-69
2021/07/05 10:43:14;;;;;;;21.80;8.30;;;;;;;15.86;100.00;100814.75;5071354;28;20178;-66
2021/07/05 10:45:56;;;;;;;20.45;8.75;;;;;;;16.02;100.00;100818.03;5071577;28;20020;-69
2021/07/05 10:48:31;;;;;;;20.65;8.45;;;;;;;16.05;100.00;100819.75;5068034;28;20036;-69
2021/07/05 10:51:01;;;;;;;19.00;6.40;;;;;;;16.09;100.00;100824.13;5070110;28;20036;-70
2021/07/05 10:53:32;;;;;;;19.42;6.53;;;;;;;16.39;100.00;100816.41;5068795;28;20028;-70
2021/07/05 10:56:01;;;;;;;18.58;5.72;;;;;;;16.37;98.68;100824.47;5068966;28;20032;-72
2021/07/05 10:58:30;;;;;;;19.63;6.50;;;;;;;16.36;100.00;100816.50;5070323;28;20161;-70
2021/07/05 11:01:00;;;;;;;19.77;6.90;;;;;;;16.90;100.00;100810.91;5070254;28;20454;-66
2021/07/05 11:03:37;;;;;;;18.58;5.53;;;;;;;17.43;99.72;100812.38;5069117;28;20088;-69
2021/07/05 11:06:09;;;;;;;17.98;5.30;;;;;;;17.73;93.42;100802.69;5070973;28;20032;-71
2021/07/05 11:08:49;;;;;;;14.85;4.63;;;;;;;18.36;86.33;100799.25;5072448;28;20024;-73